createdAt,value
2018-05-07T00:00:06.406Z,100867.84
2018-05-07T00:02:40.976Z,100872.27
2018-05-07T00:05:15.629Z,100872.58
2018-05-07T00:07:50.269Z,100863.87
2018-05-07T00:10:24.971Z,100866.27
2018-05-07T00:12:59.432Z,100865.44
2018-05-07T00:15:33.972Z,100860.20
2018-05-07T00:18:09.442Z,100864.59
2018-05-07T00:20:44.034Z,100857.55
2018-05-07T00:23:18.736Z,100854.59
2018-05-07T00:25:53.228Z,100857.03
2018-05-07T00:28:27.824Z,100854.11
2018-05-07T00:31:02.366Z,100854.31
2018-05-07T00:33:37.682Z,100850.06
2018-05-07T00:36:12.280Z,100851.22
2018-05-07T00:38:46.906Z,100853.28
2018-05-07T00:41:21.485Z,100850.23
2018-05-07T00:43:56.688Z,100849.66
2018-05-07T00:46:31.317Z,100845.28
2018-05-07T00:49:05.794Z,100855.52
2018-05-07T00:51:41.117Z,100846.84
2018-05-07T00:54:15.547Z,100850.50
2018-05-07T00:56:50.100Z,100849.13
2018-05-07T00:59:24.745Z,100851.09
2018-05-07T01:01:59.314Z,100849.23
2018-05-07T01:04:33.710Z,100845.11
2018-05-07T01:07:08.348Z,100847.34
2018-05-07T01:09:42.785Z,100852.42
2018-05-07T01:12:18.085Z,100850.30
2018-05-07T01:14:52.706Z,100850.59
2018-05-07T01:17:27.359Z,100851.95
2018-05-07T01:20:01.868Z,100859.45
2018-05-07T01:22:36.422Z,100860.59
2018-05-07T01:25:11.043Z,100863.87
2018-05-07T01:27:45.650Z,100859.28
2018-05-07T01:30:20.886Z,100854.27
2018-05-07T01:32:56.385Z,100860.83
2018-05-07T01:35:30.973Z,100858.38
2018-05-07T01:38:06.273Z,100867.56
2018-05-07T01:40:40.839Z,100859.42
2018-05-07T01:43:15.477Z,100857.88
2018-05-07T01:45:49.845Z,100848.62
2018-05-07T01:48:24.556Z,100850.18
2018-05-07T01:50:59.134Z,100851.30
2018-05-07T01:53:33.653Z,100847.97
2018-05-07T01:56:08.178Z,100847.88
2018-05-07T01:58:42.577Z,100848.34
2018-05-07T02:01:17.023Z,100839.42
2018-05-07T02:03:51.665Z,100840.13
2018-05-07T02:06:26.291Z,100841.95
2018-05-07T02:09:00.882Z,100832.55
2018-05-07T02:11:35.397Z,100834.66
2018-05-07T02:14:09.893Z,100833.95
2018-05-07T02:16:44.483Z,100835.46
2018-05-07T02:19:19.098Z,100842.42
2018-05-07T02:21:53.680Z,100836.47
2018-05-07T02:24:28.943Z,100839.45
2018-05-07T02:27:03.380Z,100833.06
2018-05-07T02:29:37.929Z,100837.78
2018-05-07T02:32:12.449Z,100838.60
2018-05-07T02:34:47.018Z,100835.48
2018-05-07T02:37:21.621Z,100837.52
2018-05-07T02:39:56.109Z,100831.30
2018-05-07T02:42:30.716Z,100830.98
2018-05-07T02:45:05.194Z,100836.60
2018-05-07T02:47:39.919Z,100837.23
2018-05-07T02:50:14.503Z,100836.34
2018-05-07T02:52:49.895Z,100830.06
2018-05-07T02:55:24.373Z,100825.55
2018-05-07T02:57:58.908Z,100826.27
2018-05-07T03:00:33.328Z,100825.29
2018-05-07T03:03:07.970Z,100827.27
2018-05-07T03:05:43.347Z,100826.50
2018-05-07T03:08:18.686Z,100822.66
2018-05-07T03:10:53.358Z,100823.23
2018-05-07T03:13:27.942Z,100819.70
2018-05-07T03:16:02.559Z,100820.04
2018-05-07T03:18:36.938Z,100820.76
2018-05-07T03:21:11.610Z,100818.13
2018-05-07T03:23:46.204Z,100808.78
2018-05-07T03:26:20.801Z,100812.49
2018-05-07T03:28:55.440Z,100813.27
2018-05-07T03:31:30.035Z,100809.52
2018-05-07T03:34:04.693Z,100814.62
2018-05-07T03:36:39.258Z,100807.66
2018-05-07T03:39:13.878Z,100807.91
2018-05-07T03:41:48.634Z,100808.78
2018-05-07T03:44:23.149Z,100808.62
2018-05-07T03:46:57.596Z,100806.45
2018-05-07T03:49:32.196Z,100798.87
2018-05-07T03:52:06.929Z,100794.39
2018-05-07T03:54:42.064Z,100800.02
2018-05-07T03:57:17.418Z,100799.09
2018-05-07T03:59:52.028Z,100797.07
2018-05-07T04:02:26.667Z,100795.42
2018-05-07T04:05:01.881Z,100791.65
2018-05-07T04:07:36.652Z,100794.97
2018-05-07T04:10:11.374Z,100786.70
2018-05-07T04:12:45.950Z,100780.28
2018-05-07T04:15:21.211Z,100781.62
2018-05-07T04:18:13.704Z,100784.70
2018-05-07T04:21:05.883Z,100781.61
2018-05-07T04:23:58.285Z,100783.05
2018-05-07T04:26:33.693Z,100780.81
2018-05-07T04:29:09.061Z,100781.70
2018-05-07T04:31:43.646Z,100784.67
2018-05-07T04:34:18.099Z,100785.59
2018-05-07T04:36:52.638Z,100790.42
2018-05-07T04:39:28.010Z,100788.76
2018-05-07T04:42:02.532Z,100787.34
2018-05-07T04:44:37.054Z,100794.98
2018-05-07T04:47:11.632Z,100793.58
2018-05-07T04:49:46.248Z,100790.88
2018-05-07T04:52:20.879Z,100795.31
2018-05-07T04:54:55.481Z,100794.67
2018-05-07T04:57:30.169Z,100794.52
2018-05-07T05:00:04.732Z,100793.45
2018-05-07T05:02:39.329Z,100803.39
2018-05-07T05:05:14.618Z,100798.08
2018-05-07T05:07:49.417Z,100799.58
2018-05-07T05:10:23.874Z,100801.03
2018-05-07T05:12:59.269Z,100800.03
2018-05-07T05:15:33.857Z,100802.01
2018-05-07T05:18:09.237Z,100799.33
2018-05-07T05:20:43.701Z,100797.42
2018-05-07T05:23:18.171Z,100800.70
2018-05-07T05:25:52.733Z,100794.48
2018-05-07T05:28:28.033Z,100794.06
2018-05-07T05:31:02.532Z,100795.41
2018-05-07T05:33:37.142Z,100793.17
2018-05-07T05:36:11.841Z,100798.69
2018-05-07T05:38:46.395Z,100792.80
2018-05-07T05:41:21.767Z,100793.98
2018-05-07T05:43:56.299Z,100795.50
2018-05-07T05:46:30.831Z,100806.66
2018-05-07T05:49:05.381Z,100801.11
2018-05-07T05:51:39.845Z,100806.87
2018-05-07T05:54:15.207Z,100802.20
2018-05-07T05:56:49.828Z,100802.34
2018-05-07T05:59:25.162Z,100804.42
2018-05-07T06:01:59.819Z,100809.80
2018-05-07T06:04:34.398Z,100803.95
2018-05-07T06:07:09.115Z,100804.88
2018-05-07T06:09:43.771Z,100808.47
2018-05-07T06:12:19.143Z,100805.78
2018-05-07T06:14:53.954Z,100810.27
2018-05-07T06:17:28.473Z,100802.04
2018-05-07T06:20:03.112Z,100812.03
2018-05-07T06:22:37.644Z,100809.59
2018-05-07T06:25:12.218Z,100808.34
2018-05-07T06:27:46.854Z,100810.13
2018-05-07T06:30:21.422Z,100806.66
2018-05-07T06:32:55.902Z,100803.55
2018-05-07T06:35:30.415Z,100801.42
2018-05-07T06:38:04.829Z,100800.56
2018-05-07T06:40:39.370Z,100804.73
2018-05-07T06:43:14.068Z,100803.39
2018-05-07T06:45:48.712Z,100801.29
2018-05-07T06:48:23.264Z,100802.58
2018-05-07T06:50:57.920Z,100799.48
2018-05-07T06:53:32.641Z,100798.89
2018-05-07T06:56:07.263Z,100803.79
2018-05-07T06:58:41.855Z,100799.61
2018-05-07T07:01:16.445Z,100810.52
2018-05-07T07:03:51.067Z,100805.73
2018-05-07T07:06:25.675Z,100802.02
2018-05-07T07:09:00.894Z,100803.55
2018-05-07T07:11:35.555Z,100803.66
2018-05-07T07:14:10.104Z,100807.61
2018-05-07T07:16:44.697Z,100800.30
2018-05-07T07:19:19.310Z,100795.16
2018-05-07T07:21:53.860Z,100796.19
2018-05-07T07:24:28.405Z,100795.77
2018-05-07T07:27:03.002Z,100791.96
2018-05-07T07:29:37.629Z,100790.05
2018-05-07T07:32:12.245Z,100791.78
2018-05-07T07:34:46.809Z,100791.20
2018-05-07T07:37:24.369Z,100797.00
2018-05-07T07:39:58.930Z,100800.55
2018-05-07T07:42:33.539Z,100797.24
2018-05-07T07:45:08.062Z,100792.07
2018-05-07T07:47:42.754Z,100798.59
2018-05-07T07:50:17.282Z,100795.22
2018-05-07T07:52:51.902Z,100803.20
2018-05-07T07:55:27.269Z,100794.45
2018-05-07T07:58:01.900Z,100794.13
2018-05-07T08:00:36.500Z,100792.89
2018-05-07T08:03:11.054Z,100791.78
2018-05-07T08:05:45.595Z,100791.31
2018-05-07T08:08:20.242Z,100789.95
2018-05-07T08:10:54.769Z,100795.65
2018-05-07T08:13:29.358Z,100795.40
2018-05-07T08:16:03.969Z,100787.13
2018-05-07T08:18:38.443Z,100788.00
2018-05-07T08:21:13.772Z,100791.56
2018-05-07T08:23:48.368Z,100778.80
2018-05-07T08:26:23.000Z,100785.75
2018-05-07T08:28:57.524Z,100777.52
2018-05-07T08:31:32.092Z,100783.69
2018-05-07T08:34:06.775Z,100785.48
2018-05-07T08:36:41.483Z,100782.11
2018-05-07T08:39:15.945Z,100775.82
2018-05-07T08:41:50.573Z,100772.09
2018-05-07T08:44:25.170Z,100764.94
2018-05-07T08:46:59.719Z,100762.81
2018-05-07T08:49:34.206Z,100763.05
2018-05-07T08:52:09.612Z,100761.04
2018-05-07T08:54:44.831Z,100753.77
2018-05-07T08:57:20.194Z,100750.47
2018-05-07T08:59:54.715Z,100747.81
2018-05-07T09:02:29.300Z,100747.41
2018-05-07T09:05:03.933Z,100742.34
2018-05-07T09:07:38.573Z,100747.14
2018-05-07T09:10:13.227Z,100739.02
2018-05-07T09:12:47.709Z,100738.61
2018-05-07T09:15:22.254Z,100728.48
2018-05-07T09:17:56.938Z,100739.41
2018-05-07T09:20:31.497Z,100734.57
2018-05-07T09:23:06.121Z,100731.00
2018-05-07T09:25:40.613Z,100730.12
2018-05-07T09:28:15.159Z,100733.41
2018-05-07T09:30:49.801Z,100728.53
2018-05-07T09:33:24.390Z,100726.77
2018-05-07T09:35:58.888Z,100719.83
2018-05-07T09:38:33.507Z,100724.23
2018-05-07T09:41:08.150Z,100715.91
2018-05-07T09:43:43.337Z,100722.41
2018-05-07T09:46:17.908Z,100713.75
2018-05-07T09:48:53.284Z,100712.86
2018-05-07T09:51:27.807Z,100716.98
2018-05-07T09:54:02.369Z,100709.64
2018-05-07T09:56:54.836Z,100707.66
2018-05-07T09:59:29.371Z,100697.36
2018-05-07T10:02:03.864Z,100700.50
2018-05-07T10:04:38.482Z,100694.09
2018-05-07T10:07:13.171Z,100689.69
2018-05-07T10:09:47.839Z,100689.78
2018-05-07T10:12:23.083Z,100684.95
2018-05-07T10:14:57.709Z,100680.08
2018-05-07T10:17:32.362Z,100682.39
2018-05-07T10:20:06.938Z,100677.22
2018-05-07T10:22:41.614Z,100676.94
2018-05-07T10:25:16.216Z,100674.57
2018-05-07T10:27:50.848Z,100671.20
2018-05-07T10:30:25.284Z,100671.02
2018-05-07T10:33:00.525Z,100668.64
2018-05-07T10:35:35.159Z,100667.17
2018-05-07T10:38:09.769Z,100663.05
2018-05-07T10:40:44.325Z,100660.51
2018-05-07T10:43:18.873Z,100661.30
2018-05-07T10:45:53.453Z,100659.40
2018-05-07T10:48:27.900Z,100659.36
2018-05-07T10:51:02.398Z,100649.83
2018-05-07T10:53:37.037Z,100647.59
2018-05-07T10:56:11.681Z,100650.41
2018-05-07T10:58:46.280Z,100654.31
2018-05-07T11:01:21.575Z,100644.23
2018-05-07T11:03:56.238Z,100642.62
2018-05-07T11:06:30.692Z,100636.45
2018-05-07T11:09:06.167Z,100634.94
2018-05-07T11:11:40.876Z,100630.81
2018-05-07T11:14:15.445Z,100629.30
2018-05-07T11:16:50.702Z,100617.30
2018-05-07T11:19:25.333Z,100615.30
2018-05-07T11:21:59.928Z,100619.42
2018-05-07T11:24:34.541Z,100615.69
2018-05-07T11:27:09.814Z,100614.83
2018-05-07T11:29:44.418Z,100615.34
2018-05-07T11:32:19.053Z,100609.18
2018-05-07T11:34:54.439Z,100619.78
2018-05-07T11:37:29.658Z,100613.34
2018-05-07T11:40:04.281Z,100604.45
2018-05-07T11:42:38.814Z,100607.39
2018-05-07T11:45:13.414Z,100604.35
2018-05-07T11:47:48.071Z,100606.44
2018-05-07T11:50:22.618Z,100593.13
2018-05-07T11:52:57.926Z,100599.55
2018-05-07T11:55:32.534Z,100597.02
2018-05-07T11:58:07.182Z,100601.45
2018-05-07T12:00:41.718Z,100594.58
2018-05-07T12:03:16.323Z,100590.49
2018-05-07T12:05:51.457Z,100589.46
2018-05-07T12:08:26.096Z,100587.80
2018-05-07T12:11:00.620Z,100579.98
2018-05-07T12:13:35.111Z,100576.60
2018-05-07T12:16:09.796Z,100572.48
2018-05-07T12:18:44.257Z,100575.16
2018-05-07T12:21:18.820Z,100563.19
2018-05-07T12:23:53.355Z,100571.09
2018-05-07T12:26:27.968Z,100572.66
2018-05-07T12:29:02.521Z,100564.77
2018-05-07T12:31:37.129Z,100565.20
2018-05-07T12:34:11.683Z,100563.62
2018-05-07T12:36:46.280Z,100556.86
2018-05-07T12:39:20.876Z,100554.04
2018-05-07T12:41:55.386Z,100551.31
2018-05-07T12:44:29.966Z,100550.28
2018-05-07T12:47:04.403Z,100547.80
2018-05-07T12:49:38.874Z,100541.77
2018-05-07T12:52:13.481Z,100540.67
2018-05-07T12:54:48.089Z,100542.30
2018-05-07T12:57:22.761Z,100535.69
2018-05-07T12:59:57.310Z,100539.20
2018-05-07T13:02:31.781Z,100535.84
2018-05-07T13:05:07.090Z,100524.52
2018-05-07T13:07:42.302Z,100516.41
2018-05-07T13:10:17.694Z,100514.86
2018-05-07T13:12:52.309Z,100508.05
2018-05-07T13:15:26.709Z,100509.62
2018-05-07T13:18:01.322Z,100505.75
2018-05-07T13:20:35.724Z,100505.10
2018-05-07T13:23:10.324Z,100497.22
2018-05-07T13:25:44.994Z,100494.96
2018-05-07T13:28:19.458Z,100491.34
2018-05-07T13:30:54.799Z,100488.56
2018-05-07T13:33:29.392Z,100481.30
2018-05-07T13:36:04.012Z,100476.22
2018-05-07T13:38:39.376Z,100482.11
2018-05-07T13:41:13.990Z,100473.89
2018-05-07T13:43:48.618Z,100468.18
2018-05-07T13:46:23.134Z,100472.50
2018-05-07T13:48:57.691Z,100459.39
2018-05-07T13:51:32.300Z,100463.89
2018-05-07T13:54:06.734Z,100457.07
2018-05-07T13:56:41.362Z,100456.56
2018-05-07T13:59:15.797Z,100449.58
2018-05-07T14:01:50.557Z,100447.31
2018-05-07T14:04:24.989Z,100451.20
2018-05-07T14:06:59.588Z,100442.06
2018-05-07T14:09:34.048Z,100436.41
2018-05-07T14:12:08.710Z,100432.25
2018-05-07T14:14:44.101Z,100428.53
2018-05-07T14:17:18.608Z,100429.36
2018-05-07T14:19:53.252Z,100424.42
2018-05-07T14:22:27.883Z,100421.80
2018-05-07T14:25:02.371Z,100419.95
2018-05-07T14:27:36.934Z,100422.70
2018-05-07T14:30:12.215Z,100420.33
2018-05-07T14:32:46.770Z,100417.50
2018-05-07T14:35:21.148Z,100406.88
2018-05-07T14:37:55.799Z,100406.98
2018-05-07T14:40:30.231Z,100400.79
2018-05-07T14:43:04.664Z,100406.23
2018-05-07T14:45:39.225Z,100396.44
2018-05-07T14:48:13.798Z,100397.80
2018-05-07T14:50:48.370Z,100387.30
2018-05-07T14:53:22.945Z,100381.12
2018-05-07T14:55:57.522Z,100387.37
2018-05-07T14:58:32.099Z,100386.71
2018-05-07T15:01:07.436Z,100387.55
2018-05-07T15:03:42.793Z,100386.17
2018-05-07T15:06:17.315Z,100376.02
2018-05-07T15:08:51.948Z,100379.07
2018-05-07T15:11:26.537Z,100376.45
2018-05-07T15:14:23.561Z,100375.91
2018-05-07T15:16:58.096Z,100375.19
2018-05-07T15:19:32.743Z,100366.24
2018-05-07T15:22:07.315Z,100368.65
2018-05-07T15:24:46.774Z,100367.94
2018-05-07T15:27:22.096Z,100358.33
2018-05-07T15:29:56.664Z,100362.63
2018-05-07T15:32:31.144Z,100365.41
2018-05-07T15:35:05.629Z,100352.07
2018-05-07T15:37:40.227Z,100355.68
2018-05-07T15:40:14.916Z,100350.47
2018-05-07T15:42:49.509Z,100352.73
2018-05-07T15:45:24.761Z,100349.28
2018-05-07T15:47:59.389Z,100342.78
2018-05-07T15:50:33.867Z,100349.02
2018-05-07T15:53:09.146Z,100350.00
2018-05-07T15:55:43.892Z,100351.45
2018-05-07T15:58:18.521Z,100353.62
2018-05-07T16:00:52.994Z,100346.93
2018-05-07T16:03:27.566Z,100345.14
2018-05-07T16:06:03.003Z,100344.52
2018-05-07T16:08:37.449Z,100340.16
2018-05-07T16:11:12.065Z,100343.23
2018-05-07T16:13:47.421Z,100334.86
2018-05-07T16:16:21.953Z,100342.10
2018-05-07T16:18:57.249Z,100332.91
2018-05-07T16:21:31.697Z,100315.14
2018-05-07T16:24:06.291Z,100329.48
2018-05-07T16:26:40.833Z,100320.34
2018-05-07T16:29:16.220Z,100322.50
2018-05-07T16:31:50.804Z,100313.37
2018-05-07T16:34:25.268Z,100312.29
2018-05-07T16:36:59.892Z,100312.91
2018-05-07T16:39:34.534Z,100306.32
2018-05-07T16:42:09.103Z,100298.46
2018-05-07T16:44:43.592Z,100296.06
2018-05-07T16:47:18.074Z,100294.00
2018-05-07T16:49:52.625Z,100303.48
2018-05-07T16:52:27.951Z,100297.77
2018-05-07T16:55:02.421Z,100291.23
2018-05-07T16:57:36.969Z,100290.04
2018-05-07T17:00:11.583Z,100292.56
2018-05-07T17:02:46.307Z,100290.62
2018-05-07T17:05:20.986Z,100284.14
2018-05-07T17:07:55.553Z,100283.33
2018-05-07T17:10:30.221Z,100285.33
2018-05-07T17:13:04.823Z,100278.89
2018-05-07T17:15:39.397Z,100281.33
2018-05-07T17:18:14.010Z,100278.70
2018-05-07T17:20:48.602Z,100273.31
2018-05-07T17:23:23.245Z,100269.27
2018-05-07T17:25:57.803Z,100270.39
2018-05-07T17:28:32.429Z,100263.33
2018-05-07T17:31:06.985Z,100265.06
2018-05-07T17:33:41.686Z,100264.69
2018-05-07T17:36:16.030Z,100267.59
2018-05-07T17:38:50.597Z,100270.28
2018-05-07T17:41:26.032Z,100263.20
2018-05-07T17:44:18.408Z,100268.73
2018-05-07T17:47:10.749Z,100263.75
2018-05-07T17:49:45.556Z,100265.95
2018-05-07T17:52:20.052Z,100271.88
2018-05-07T17:54:54.689Z,100267.15
2018-05-07T17:57:29.213Z,100255.66
2018-05-07T18:00:03.929Z,100256.56
2018-05-07T18:02:38.397Z,100261.62
2018-05-07T18:05:13.010Z,100259.07
2018-05-07T18:07:47.547Z,100257.80
2018-05-07T18:10:22.281Z,100254.52
2018-05-07T18:12:56.677Z,100266.12
2018-05-07T18:15:32.078Z,100262.75
2018-05-07T18:18:06.615Z,100265.55
2018-05-07T18:20:41.155Z,100262.53
2018-05-07T18:23:16.457Z,100266.20
2018-05-07T18:25:51.060Z,100262.72
2018-05-07T18:28:25.654Z,100269.08
2018-05-07T18:31:00.321Z,100263.90
2018-05-07T18:33:34.952Z,100264.56
2018-05-07T18:36:09.536Z,100269.34
2018-05-07T18:38:44.126Z,100264.16
2018-05-07T18:41:18.592Z,100269.42
2018-05-07T18:43:53.254Z,100262.70
2018-05-07T18:46:28.477Z,100264.92
2018-05-07T18:49:03.125Z,100267.75
2018-05-07T18:51:37.668Z,100267.70
2018-05-07T18:54:12.234Z,100270.92
2018-05-07T18:56:46.845Z,100272.91
2018-05-07T18:59:21.386Z,100273.56
2018-05-07T19:01:56.769Z,100269.03
2018-05-07T19:04:31.968Z,100272.55
2018-05-07T19:07:06.631Z,100276.16
2018-05-07T19:09:41.158Z,100274.60
2018-05-07T19:12:15.693Z,100276.47
2018-05-07T19:14:50.274Z,100281.77
2018-05-07T19:17:24.933Z,100280.94
2018-05-07T19:20:00.151Z,100286.00
2018-05-07T19:22:34.794Z,100288.16
2018-05-07T19:25:09.265Z,100288.48
2018-05-07T19:27:43.733Z,100291.56
2018-05-07T19:30:18.375Z,100294.91
2018-05-07T19:32:52.928Z,100288.52
2018-05-07T19:35:27.539Z,100291.38
2018-05-07T19:38:01.998Z,100291.66
2018-05-07T19:40:37.321Z,100295.01
2018-05-07T19:43:11.897Z,100293.46
2018-05-07T19:45:46.544Z,100294.20
2018-05-07T19:48:21.178Z,100303.58
2018-05-07T19:50:55.746Z,100298.42
2018-05-07T19:53:30.261Z,100303.86
2018-05-07T19:56:04.849Z,100300.52
2018-05-07T19:58:39.299Z,100303.41
2018-05-07T20:01:13.871Z,100303.26
2018-05-07T20:03:49.151Z,100305.67
2018-05-07T20:06:23.775Z,100302.65
2018-05-07T20:08:58.401Z,100301.87
2018-05-07T20:11:32.997Z,100306.54
2018-05-07T20:14:07.515Z,100307.16
2018-05-07T20:16:42.069Z,100304.81
2018-05-07T20:19:16.593Z,100314.25
2018-05-07T20:21:51.908Z,100310.63
2018-05-07T20:24:26.550Z,100311.69
2018-05-07T20:27:01.152Z,100311.04
2018-05-07T20:29:35.747Z,100316.48
2018-05-07T20:32:10.363Z,100311.90
2018-05-07T20:34:44.994Z,100310.66
2018-05-07T20:37:19.563Z,100308.48
2018-05-07T20:39:54.902Z,100302.23
2018-05-07T20:42:29.489Z,100300.12
2018-05-07T20:45:04.809Z,100298.95
2018-05-07T20:47:39.403Z,100309.23
2018-05-07T20:50:14.828Z,100306.97
2018-05-07T20:52:49.378Z,100307.73
2018-05-07T20:55:24.024Z,100311.19
2018-05-07T20:57:58.492Z,100309.46
2018-05-07T21:00:33.086Z,100307.12
2018-05-07T21:03:08.319Z,100306.67
2018-05-07T21:05:42.909Z,100300.60
2018-05-07T21:08:17.407Z,100292.91
2018-05-07T21:10:51.960Z,100294.81
2018-05-07T21:13:26.513Z,100292.84
2018-05-07T21:16:01.799Z,100291.65
2018-05-07T21:18:36.461Z,100292.72
2018-05-07T21:21:11.030Z,100294.40
2018-05-07T21:23:45.502Z,100300.42
2018-05-07T21:26:20.168Z,100293.50
2018-05-07T21:28:54.706Z,100295.42
2018-05-07T21:31:29.225Z,100299.83
2018-05-07T21:34:04.578Z,100289.63
2018-05-07T21:36:39.028Z,100290.50
2018-05-07T21:39:13.647Z,100288.16
2018-05-07T21:41:48.237Z,100288.91
2018-05-07T21:44:22.782Z,100277.50
2018-05-07T21:46:57.420Z,100288.83
2018-05-07T21:49:31.877Z,100282.72
2018-05-07T21:52:06.425Z,100282.95
2018-05-07T21:54:40.958Z,100283.20
2018-05-07T21:57:15.573Z,100276.31
2018-05-07T21:59:50.102Z,100279.84
2018-05-07T22:02:24.647Z,100276.27
2018-05-07T22:04:59.291Z,100276.88
2018-05-07T22:07:33.981Z,100278.48
2018-05-07T22:10:08.509Z,100285.26
2018-05-07T22:12:42.904Z,100282.83
2018-05-07T22:15:17.571Z,100287.42
2018-05-07T22:17:52.216Z,100282.64
2018-05-07T22:20:26.669Z,100284.48
2018-05-07T22:23:01.223Z,100278.55
2018-05-07T22:25:35.637Z,100283.22
2018-05-07T22:28:10.312Z,100286.98
2018-05-07T22:30:44.750Z,100281.22
2018-05-07T22:33:19.341Z,100279.72
2018-05-07T22:35:54.004Z,100277.12
2018-05-07T22:38:28.592Z,100279.30
2018-05-07T22:41:03.181Z,100276.61
2018-05-07T22:43:37.852Z,100275.41
2018-05-07T22:46:12.495Z,100272.38
2018-05-07T22:48:47.798Z,100276.73
2018-05-07T22:51:22.551Z,100270.78
2018-05-07T22:53:57.025Z,100275.23
2018-05-07T22:56:31.540Z,100269.73
2018-05-07T22:59:06.129Z,100268.38
2018-05-07T23:01:40.658Z,100271.33
2018-05-07T23:04:15.263Z,100268.33
2018-05-07T23:06:49.836Z,100275.38
2018-05-07T23:09:24.312Z,100271.70
2018-05-07T23:11:58.941Z,100275.75
2018-05-07T23:14:33.501Z,100271.31
2018-05-07T23:17:08.185Z,100270.24
2018-05-07T23:19:42.807Z,100267.27
2018-05-07T23:22:17.444Z,100267.20
2018-05-07T23:24:52.689Z,100265.44
2018-05-07T23:27:27.326Z,100267.28
2018-05-07T23:30:01.963Z,100259.03
2018-05-07T23:32:42.202Z,100260.70
2018-05-07T23:35:16.791Z,100261.61
2018-05-07T23:37:51.337Z,100257.14
2018-05-07T23:40:25.765Z,100256.36
2018-05-07T23:43:01.113Z,100256.48
2018-05-07T23:45:35.739Z,100253.30
2018-05-07T23:48:10.255Z,100245.44
2018-05-07T23:50:44.794Z,100239.80
2018-05-07T23:53:19.276Z,100244.06
2018-05-07T23:55:53.946Z,100238.53
2018-05-07T23:58:28.581Z,100238.91
